KNTU

Oceana NAS / Apollo Soucek Field Airport

Virginia Beach, Virginia, USA
METAR KNTU 151156Z 07019G25KT 10SM -RA BKN023 BKN049 OVC090 09/07 A3027 RMK AO2 SLP253 P0002 60005 70005 T00940072 10100 20089 58023
Observed Flight Rules
Nov-15 @ 11:56 UTC (46 minutes ago) Marginal Visual Flight Rules
Wind Visibility Clouds Conditions
70° at 19 knots
 Gusting to 25 knots
10 miles
  • Broken at 2,300' AGL
  • Broken at 4,900' AGL
  • Overcast at 9,000' AGL
  • Light Rain
Temperatures Readings Precipitation
Current 9°C / 48°F
Dewpoint 7°C / 45°F
Humidity 87%
Altimeter 30.27" Hg
Pressure 1025.3 hPa
Elevation 7
Current Rain 0.02
METAR KNTU 151156Z 07019G25KT 10SM -RA BKN023 BKN049 OVC090 09/07 A3027 RMK AO2 SLP253 P0002 60005 70005 T00940072 10100 20089 58023
Observed Flight Rules
Nov-15 @ 11:56 UTC
(46 minutes ago)
MVFR
Wind Visibility
70° at 19 knots
 Gusting to 25 knots
10 miles
Clouds
  • Broken at 2,300' AGL
  • Broken at 4,900' AGL
  • Overcast at 9,000' AGL
Conditions
  • Light Rain
Temperature Dewpoint
9°C / 48°F 7°C / 45°F
Humidity Altimeter Pressure
87% 30.27" Hg 1025.3 hPa
Current Rain
0.02